Aviation Digital Data Service (ADDS)

Output produced by METARs form (1335 UTC 25 February 2018)
found at http://aviationweather.gov/adds/metars/
 
KBDR 251152Z 2512/2612 08018G28KT 3SM RA BR OVC015 
     FM251500 08017G28KT 1 1/2SM RA BR OVC012 
     FM251700 07014G23KT 1 1/2SM RA BR OVC012 
     FM251800 07013G22KT 2SM RA OVC012 
     FM252000 04008KT 2SM -RA OVC014 
     FM252200 VRB04KT 2SM BR OVC025 
     FM260000 VRB03KT 1 1/2SM BR OVC120 
     FM260100 VRB03KT 1SM BR OVC150 
     FM260500 00000KT 4SM BR OVC150 
     FM260800 00000KT P6SM BKN150